Time;durP1;ratioP1;P1;durP2;ratioP2;P2;SDS_P1;SDS_P2;PMS_P1;PMS_P2;Temp;Humidity;BMP_temperature;BMP_pressure;BME280_temperature;BME280_humidity;BME280_pressure;Samples;Min_cycle;Max_cycle;Signal;HPM_P1;HPM_P2
2021/05/05 00:01:22;;;;;;;11.20;3.35;;;7.90;90.80;;;;;;5073145;28;20391;-61
2021/05/05 00:03:48;;;;;;;12.10;3.35;;;8.00;90.80;;;;;;5072843;28;20029;-61
2021/05/05 00:06:15;;;;;;;7.18;2.10;;;8.00;90.80;;;;;;5072101;28;20082;-61
2021/05/05 00:08:41;;;;;;;10.10;2.25;;;8.00;90.80;;;;;;5073141;28;20447;-61
2021/05/05 00:11:07;;;;;;;8.50;1.75;;;7.90;90.80;;;;;;5072369;28;20072;-61
2021/05/05 00:13:33;;;;;;;7.40;2.03;;;8.00;90.90;;;;;;5072637;28;20112;-61
2021/05/05 00:15:59;;;;;;;10.10;2.72;;;7.90;90.80;;;;;;5072767;28;20107;-61
2021/05/05 00:18:25;;;;;;;9.85;2.22;;;8.00;90.90;;;;;;5072202;28;20036;-61
2021/05/05 00:20:50;;;;;;;10.10;2.33;;;7.90;90.90;;;;;;5072581;28;20029;-61
2021/05/05 00:23:16;;;;;;;9.85;2.70;;;7.90;91.00;;;;;;5072929;28;20029;-61
2021/05/05 00:25:42;;;;;;;10.00;2.05;;;7.90;91.00;;;;;;5071479;28;20036;-61
2021/05/05 00:28:07;;;;;;;10.77;2.95;;;8.00;91.00;;;;;;5072679;28;20166;-61
2021/05/05 00:30:34;;;;;;;9.52;2.45;;;8.00;91.00;;;;;;5072771;28;20045;-61
2021/05/05 00:33:00;;;;;;;11.50;2.40;;;8.00;91.00;;;;;;5071795;28;20028;-61
2021/05/05 00:35:25;;;;;;;10.40;2.40;;;7.90;91.00;;;;;;5072753;28;20055;-61
2021/05/05 00:37:51;;;;;;;13.45;2.33;;;7.80;91.20;;;;;;5072686;28;20024;-61
2021/05/05 00:40:17;;;;;;;11.48;2.67;;;7.80;91.30;;;;;;5072097;28;20498;-61
2021/05/05 00:42:43;;;;;;;13.50;2.85;;;7.80;91.30;;;;;;5072672;28;20365;-61
2021/05/05 00:45:11;;;;;;;9.50;2.47;;;7.80;91.30;;;;;;5072337;28;20041;-61
2021/05/05 00:47:38;;;;;;;7.20;2.25;;;7.80;91.30;;;;;;5071601;28;20123;-61
2021/05/05 00:50:05;;;;;;;13.27;2.40;;;7.80;91.20;;;;;;5072232;28;20074;-61
2021/05/05 00:52:35;;;;;;;9.48;2.30;;;7.80;91.10;;;;;;5072365;28;20055;-61
2021/05/05 00:55:01;;;;;;;9.15;2.35;;;7.90;91.20;;;;;;5071916;28;20027;-60
2021/05/05 00:57:28;;;;;;;19.02;2.25;;;7.80;91.10;;;;;;5072158;28;20412;-61
2021/05/05 00:59:54;;;;;;;10.52;2.65;;;7.80;91.10;;;;;;5059849;28;20120;-61
2021/05/05 01:02:24;;;;;;;10.60;2.60;;;7.90;91.10;;;;;;5069556;28;20089;-61
2021/05/05 01:04:51;;;;;;;9.02;2.25;;;7.90;91.10;;;;;;5075112;28;20468;-61
2021/05/05 01:07:17;;;;;;;8.73;2.20;;;7.80;91.10;;;;;;5074910;28;20077;-61
2021/05/05 01:09:44;;;;;;;5.85;2.28;;;7.80;91.10;;;;;;5075607;28;20025;-61
2021/05/05 01:12:11;;;;;;;10.73;2.50;;;7.90;91.00;;;;;;5076171;28;20052;-61
2021/05/05 01:14:37;;;;;;;6.25;2.10;;;7.90;91.00;;;;;;5075496;28;20170;-61
2021/05/05 01:17:04;;;;;;;13.73;2.30;;;7.90;91.00;;;;;;5074780;28;20511;-61
2021/05/05 01:19:30;;;;;;;13.13;2.92;;;7.80;91.00;;;;;;5076148;28;20028;-61
2021/05/05 01:21:56;;;;;;;9.30;1.98;;;7.80;90.90;;;;;;5075449;28;20032;-61
2021/05/05 01:24:25;;;;;;;14.63;3.42;;;7.80;91.00;;;;;;5075979;28;20103;-61
2021/05/05 01:26:50;;;;;;;7.40;2.30;;;7.80;90.90;;;;;;5074657;28;20021;-61
2021/05/05 01:29:17;;;;;;;7.15;2.15;;;7.90;90.90;;;;;;5075090;28;20039;-61
2021/05/05 01:31:42;;;;;;;10.00;2.80;;;7.80;90.80;;;;;;5075857;28;20028;-61
2021/05/05 01:34:08;;;;;;;9.13;2.13;;;7.90;90.80;;;;;;5076362;28;20108;-61
2021/05/05 01:36:36;;;;;;;11.30;2.20;;;7.90;90.80;;;;;;5075140;28;20044;-61
2021/05/05 01:39:12;;;;;;;11.07;2.53;;;7.80;90.70;;;;;;5074461;28;20029;-61
2021/05/05 01:41:38;;;;;;;11.02;2.33;;;7.80;90.80;;;;;;5074291;28;20025;-61
2021/05/05 01:44:04;;;;;;;14.50;2.20;;;7.80;90.80;;;;;;5074923;28;20130;-61
2021/05/05 01:46:30;;;;;;;6.13;2.33;;;7.80;90.70;;;;;;5070999;28;20104;-61
2021/05/05 01:48:56;;;;;;;11.90;2.40;;;7.70;90.60;;;;;;5064464;28;20828;-61
2021/05/05 01:51:22;;;;;;;13.00;2.40;;;7.80;90.70;;;;;;5074709;28;20036;-61
2021/05/05 01:53:48;;;;;;;7.68;1.90;;;7.70;90.70;;;;;;5075113;28;20474;-60
2021/05/05 01:56:14;;;;;;;16.92;2.58;;;7.80;90.70;;;;;;5074205;28;20161;-61
2021/05/05 01:58:40;;;;;;;9.77;2.10;;;7.80;90.80;;;;;;5073204;28;20032;-61
2021/05/05 02:01:07;;;;;;;11.27;2.10;;;7.70;90.90;;;;;;5074748;28;20045;-61
2021/05/05 02:03:34;;;;;;;9.73;2.63;;;7.70;91.00;;;;;;5075505;28;20028;-60
2021/05/05 02:06:04;;;;;;;15.25;2.72;;;7.70;91.00;;;;;;5073699;28;20063;-61
2021/05/05 02:08:48;;;;;;;;;;;7.80;91.00;;;;;;5075473;28;20040;-61
2021/05/05 02:11:16;;;;;;;13.98;2.65;;;7.70;90.90;;;;;;5090082;28;19920;-60
2021/05/05 02:13:42;;;;;;;14.00;2.85;;;7.70;90.90;;;;;;5074965;28;20028;-60
2021/05/05 02:16:11;;;;;;;12.65;2.47;;;7.70;90.90;;;;;;5074999;28;20024;-60
2021/05/05 02:18:45;;;;;;;13.13;3.38;;;7.70;90.80;;;;;;5073109;28;20021;-61
2021/05/05 02:21:11;;;;;;;13.65;2.92;;;7.80;90.80;;;;;;5073460;28;20035;-61
2021/05/05 02:23:38;;;;;;;8.93;2.40;;;7.70;90.80;;;;;;5073571;28;20047;-60
2021/05/05 02:26:04;;;;;;;11.00;1.90;;;7.70;90.80;;;;;;5072757;28;20117;-61
2021/05/05 02:28:31;;;;;;;10.18;2.08;;;7.70;90.90;;;;;;5073510;28;20505;-60
2021/05/05 02:31:17;;;;;;;11.35;2.50;;;7.80;90.80;;;;;;5046842;28;20040;-61
2021/05/05 02:33:44;;;;;;;16.65;3.15;;;7.80;90.70;;;;;;5072778;28;20043;-61
2021/05/05 02:36:09;;;;;;;9.45;2.13;;;7.80;90.60;;;;;;5074465;28;20442;-61
2021/05/05 02:38:37;;;;;;;4.53;1.73;;;7.80;90.50;;;;;;5073358;28;20075;-60
2021/05/05 02:41:06;;;;;;;8.70;1.80;;;7.80;90.40;;;;;;5072452;28;20423;-60
2021/05/05 02:43:32;;;;;;;13.00;2.55;;;7.80;90.40;;;;;;5074684;28;20081;-61
2021/05/05 02:45:58;;;;;;;8.88;2.58;;;7.80;90.20;;;;;;5072373;28;20032;-61
2021/05/05 02:48:24;;;;;;;13.27;2.95;;;7.80;90.20;;;;;;5074190;28;20447;-61
2021/05/05 02:50:50;;;;;;;9.57;2.53;;;7.80;90.20;;;;;;5072950;28;20036;-60
2021/05/05 02:53:16;;;;;;;6.80;2.13;;;7.80;90.30;;;;;;5072259;28;20506;-60
2021/05/05 02:55:42;;;;;;;12.68;3.47;;;7.70;90.40;;;;;;5072833;28;20025;-60
2021/05/05 02:58:08;;;;;;;7.03;2.45;;;7.60;90.60;;;;;;5065431;28;20033;-61
2021/05/05 03:00:34;;;;;;;11.30;2.30;;;7.60;90.80;;;;;;5072597;28;20024;-61
2021/05/05 03:03:00;;;;;;;9.43;2.08;;;7.50;90.80;;;;;;5068006;28;20494;-61
2021/05/05 03:05:25;;;;;;;6.28;2.08;;;7.50;90.80;;;;;;5055634;28;20392;-61
2021/05/05 03:07:51;;;;;;;8.07;2.20;;;7.50;90.80;;;;;;5065765;28;20074;-61
2021/05/05 03:10:18;;;;;;;8.15;2.28;;;7.50;90.80;;;;;;5067967;28;20057;-61
2021/05/05 03:12:44;;;;;;;13.05;2.30;;;7.50;90.80;;;;;;5073614;28;20032;-60
2021/05/05 03:15:10;;;;;;;7.82;2.05;;;7.50;90.90;;;;;;5073154;28;20126;-61
2021/05/05 03:17:37;;;;;;;4.03;1.65;;;7.50;91.10;;;;;;5059573;28;20108;-61
2021/05/05 03:20:08;;;;;;;10.23;2.03;;;7.50;90.90;;;;;;5073871;28;20032;-61
2021/05/05 03:22:34;;;;;;;10.23;1.88;;;7.50;90.90;;;;;;5073049;28;20116;-61
2021/05/05 03:24:59;;;;;;;8.55;2.08;;;7.50;90.90;;;;;;5073192;28;20105;-60
2021/05/05 03:27:25;;;;;;;10.02;2.35;;;7.50;90.90;;;;;;5073575;28;20036;-61
2021/05/05 03:29:51;;;;;;;6.40;1.45;;;7.50;90.90;;;;;;5072866;28;20047;-61
2021/05/05 03:32:20;;;;;;;4.38;1.83;;;7.50;90.80;;;;;;5073242;28;20434;-60
2021/05/05 03:34:45;;;;;;;6.50;2.03;;;7.50;90.80;;;;;;5059487;28;20028;-61
2021/05/05 03:37:11;;;;;;;8.32;2.50;;;7.50;90.80;;;;;;5073033;28;20028;-61
2021/05/05 03:39:37;;;;;;;10.13;2.13;;;7.40;90.80;;;;;;5073372;28;20032;-60
2021/05/05 03:42:02;;;;;;;5.82;1.90;;;7.40;90.80;;;;;;5073442;28;20024;-61
2021/05/05 03:44:31;;;;;;;6.15;1.67;;;7.40;90.80;;;;;;5072550;28;20502;-61
2021/05/05 03:46:57;;;;;;;4.18;1.83;;;7.50;90.70;;;;;;5072906;28;20031;-61
2021/05/05 03:49:22;;;;;;;8.48;1.60;;;7.50;90.60;;;;;;5072496;28;20056;-60
2021/05/05 03:51:48;;;;;;;7.90;2.13;;;7.50;90.50;;;;;;5072892;28;20032;-60
2021/05/05 03:54:16;;;;;;;4.68;1.58;;;7.50;90.40;;;;;;5073162;28;20032;-60
2021/05/05 03:56:42;;;;;;;6.32;1.75;;;7.50;90.30;;;;;;5072344;28;20083;-60
2021/05/05 03:59:10;;;;;;;8.88;2.38;;;7.50;90.30;;;;;;5072894;28;20471;-60
2021/05/05 04:01:35;;;;;;;8.95;2.13;;;7.50;90.40;;;;;;5072648;28;20060;-62
2021/05/05 04:04:01;;;;;;;10.50;2.25;;;7.40;90.50;;;;;;5072129;28;20109;-61
2021/05/05 04:06:27;;;;;;;4.88;1.60;;;7.40;90.70;;;;;;5073048;28;20040;-60
2021/05/05 04:08:53;;;;;;;5.00;1.85;;;7.40;90.70;;;;;;5058533;28;20021;-60
2021/05/05 04:11:19;;;;;;;4.70;1.52;;;7.40;90.70;;;;;;5072106;28;20032;-61
2021/05/05 04:13:45;;;;;;;6.20;2.00;;;7.40;90.60;;;;;;5072771;28;20032;-60
2021/05/05 04:16:10;;;;;;;6.78;1.80;;;7.50;90.60;;;;;;5072830;28;20443;-60
2021/05/05 04:18:36;;;;;;;8.00;1.58;;;7.50;90.50;;;;;;5072242;28;20024;-60
2021/05/05 04:21:05;;;;;;;6.82;1.42;;;7.50;90.50;;;;;;5073007;28;20387;-60
2021/05/05 04:23:33;;;;;;;4.28;1.30;;;7.50;90.50;;;;;;5073233;28;20074;-60
2021/05/05 04:25:58;;;;;;;13.50;1.98;;;7.60;90.40;;;;;;5072500;28;20063;-60
2021/05/05 04:28:26;;;;;;;6.10;1.58;;;7.50;90.40;;;;;;5072784;28;20028;-60
2021/05/05 04:30:53;;;;;;;6.20;2.00;;;7.60;90.40;;;;;;5072471;28;20039;-60
2021/05/05 04:33:18;;;;;;;5.90;1.38;;;7.50;90.30;;;;;;5072264;28;20029;-60
2021/05/05 04:35:44;;;;;;;6.80;2.10;;;7.50;90.40;;;;;;5072282;28;20097;-61
2021/05/05 04:38:10;;;;;;;6.82;2.55;;;7.50;90.50;;;;;;5072694;28;20357;-60
2021/05/05 04:40:36;;;;;;;6.85;1.80;;;7.40;90.50;;;;;;5070702;28;20024;-61
2021/05/05 04:43:02;;;;;;;13.13;3.28;;;7.40;90.70;;;;;;5072378;28;20074;-60
2021/05/05 04:45:27;;;;;;;8.68;2.20;;;7.40;90.70;;;;;;5071852;28;20047;-61
2021/05/05 04:47:53;;;;;;;16.02;2.58;;;7.30;90.90;;;;;;5072327;28;20139;-61
2021/05/05 04:50:19;;;;;;;8.07;2.53;;;7.30;91.00;;;;;;5071530;28;20476;-60
2021/05/05 04:52:45;;;;;;;6.53;1.75;;;7.20;91.10;;;;;;5069199;28;20541;-61
2021/05/05 04:55:12;;;;;;;6.85;1.98;;;7.20;91.10;;;;;;5072162;28;20040;-60
2021/05/05 04:57:37;;;;;;;7.53;2.30;;;7.20;91.10;;;;;;5072352;28;20439;-60
2021/05/05 05:00:06;;;;;;;14.70;2.90;;;7.20;91.00;;;;;;5071381;28;20029;-61
2021/05/05 05:02:32;;;;;;;9.05;2.60;;;7.20;91.00;;;;;;5072474;28;20060;-60
2021/05/05 05:05:04;;;;;;;10.43;1.73;;;7.20;91.00;;;;;;5071789;28;20526;-61
2021/05/05 05:07:30;;;;;;;19.10;2.90;;;7.30;90.90;;;;;;5058575;28;20484;-60
2021/05/05 05:09:57;;;;;;;12.15;2.55;;;7.40;90.90;;;;;;5070935;28;20119;-61
2021/05/05 05:12:25;;;;;;;9.23;2.47;;;7.40;90.90;;;;;;5072023;28;20033;-61
2021/05/05 05:14:53;;;;;;;13.63;2.50;;;7.40;90.90;;;;;;5071870;28;20035;-60
2021/05/05 05:17:19;;;;;;;15.55;2.38;;;7.50;90.90;;;;;;5070776;28;20393;-61
2021/05/05 05:19:45;;;;;;;7.95;2.75;;;7.50;90.90;;;;;;5072320;28;20036;-61
2021/05/05 05:22:11;;;;;;;8.05;2.22;;;7.50;90.80;;;;;;5071355;28;20021;-61
2021/05/05 05:24:36;;;;;;;21.67;3.28;;;7.50;90.80;;;;;;5072065;28;20056;-61
2021/05/05 05:27:02;;;;;;;12.20;2.20;;;7.50;90.80;;;;;;5072004;28;20028;-61
2021/05/05 05:29:28;;;;;;;18.50;4.03;;;7.60;90.80;;;;;;5071464;28;20079;-61
2021/05/05 05:31:53;;;;;;;15.52;3.40;;;7.50;90.80;;;;;;5072255;28;20491;-60
2021/05/05 05:34:19;;;;;;;7.72;2.63;;;7.60;91.10;;;;;;5072148;28;20500;-61
2021/05/05 05:36:45;;;;;;;13.95;2.92;;;7.60;90.90;;;;;;5070105;28;20472;-60
2021/05/05 05:39:11;;;;;;;7.82;2.20;;;7.60;90.90;;;;;;5071863;28;20025;-60
2021/05/05 05:41:37;;;;;;;13.73;2.97;;;7.50;91.00;;;;;;5070675;28;20037;-61
2021/05/05 05:44:03;;;;;;;12.25;3.05;;;7.60;91.00;;;;;;5071529;28;20024;-61
2021/05/05 05:46:29;;;;;;;10.73;3.00;;;7.60;91.00;;;;;;5058176;28;20059;-60
2021/05/05 05:48:55;;;;;;;10.68;2.97;;;7.60;91.00;;;;;;5072987;28;20076;-61
2021/05/05 05:51:21;;;;;;;16.50;3.40;;;7.60;91.00;;;;;;5075272;28;20047;-60
2021/05/05 05:53:47;;;;;;;9.30;2.72;;;7.60;91.10;;;;;;5075473;28;20400;-60
2021/05/05 05:56:13;;;;;;;15.55;2.92;;;7.60;91.00;;;;;;5074421;28;20029;-60
2021/05/05 05:58:38;;;;;;;11.98;3.05;;;7.60;91.00;;;;;;5075559;28;20028;-61
2021/05/05 06:01:04;;;;;;;10.63;2.78;;;7.60;91.10;;;;;;5075093;28;20514;-60
2021/05/05 06:03:30;;;;;;;6.90;2.50;;;7.60;91.10;;;;;;5073236;28;20035;-61
2021/05/05 06:05:57;;;;;;;10.60;2.35;;;7.60;91.10;;;;;;5073945;28;20028;-60
2021/05/05 06:08:25;;;;;;;13.88;2.33;;;7.70;91.00;;;;;;5074993;28;20031;-61
2021/05/05 06:10:51;;;;;;;9.85;2.55;;;7.80;91.20;;;;;;5074344;28;20392;-60
2021/05/05 06:13:16;;;;;;;9.80;2.28;;;7.80;90.80;;;;;;5075173;28;20029;-60
2021/05/05 06:15:42;;;;;;;20.52;3.05;;;7.80;90.70;;;;;;5075066;28;20027;-61
2021/05/05 06:18:09;;;;;;;13.15;2.95;;;7.90;90.70;;;;;;5073853;28;20426;-61
2021/05/05 06:20:34;;;;;;;11.27;2.15;;;7.80;90.80;;;;;;5073110;28;20032;-60
2021/05/05 06:23:00;;;;;;;6.30;1.38;;;7.80;90.90;;;;;;5073778;28;20468;-60
2021/05/05 06:25:26;;;;;;;6.15;1.90;;;7.80;90.80;;;;;;5073785;28;20055;-60
2021/05/05 06:27:52;;;;;;;6.10;1.77;;;7.90;90.40;;;;;;5074351;28;20021;-60
2021/05/05 06:30:18;;;;;;;10.15;1.48;;;7.90;90.30;;;;;;5065217;28;20037;-60
2021/05/05 06:32:45;;;;;;;6.38;1.98;;;7.90;90.50;;;;;;5061877;28;20052;-61
2021/05/05 06:35:11;;;;;;;11.25;2.35;;;7.90;90.20;;;;;;5074243;28;20478;-61
2021/05/05 06:37:37;;;;;;;6.13;2.38;;;7.90;90.30;;;;;;5074251;28;20047;-60
2021/05/05 06:40:07;;;;;;;5.85;1.70;;;8.00;90.30;;;;;;5064500;28;20064;-60
2021/05/05 06:42:34;;;;;;;4.93;1.23;;;8.00;90.20;;;;;;5070833;28;20044;-60
2021/05/05 06:45:01;;;;;;;4.80;1.55;;;8.00;90.10;;;;;;5073534;28;20025;-60
2021/05/05 06:47:28;;;;;;;4.72;1.50;;;8.00;90.10;;;;;;5068422;28;20028;-61
2021/05/05 06:49:53;;;;;;;5.28;1.77;;;8.00;90.00;;;;;;5072537;28;20053;-60
2021/05/05 06:52:19;;;;;;;11.20;1.58;;;8.00;90.00;;;;;;5072338;28;20028;-60
2021/05/05 06:54:47;;;;;;;4.47;1.67;;;8.00;90.00;;;;;;5072844;28;20100;-60
2021/05/05 06:57:13;;;;;;;6.68;1.92;;;8.10;90.10;;;;;;5071450;28;20108;-60
2021/05/05 06:59:39;;;;;;;14.07;2.70;;;8.10;90.10;;;;;;5071014;28;20103;-60
2021/05/05 07:02:07;;;;;;;13.60;2.80;;;8.00;90.20;;;;;;5072678;28;20132;-60
2021/05/05 07:04:33;;;;;;;8.82;2.83;;;8.00;90.30;;;;;;5069777;28;20039;-60
2021/05/05 07:06:58;;;;;;;8.07;2.40;;;8.00;90.50;;;;;;5070516;28;20127;-60
2021/05/05 07:09:24;;;;;;;5.63;1.80;;;7.90;90.60;;;;;;5066656;28;20017;-60
2021/05/05 07:11:50;;;;;;;1.80;1.30;;;7.90;90.70;;;;;;5070039;28;20487;-60
2021/05/05 07:14:15;;;;;;;6.97;1.75;;;7.90;90.60;;;;;;5071112;28;20052;-60
2021/05/05 07:16:41;;;;;;;4.57;1.70;;;7.80;90.50;;;;;;5072443;28;20151;-60
2021/05/05 07:19:07;;;;;;;5.68;1.55;;;7.80;90.60;;;;;;5072096;28;20025;-60
2021/05/05 07:21:33;;;;;;;2.60;1.02;;;7.70;90.60;;;;;;5071107;28;20032;-61
2021/05/05 07:23:59;;;;;;;6.47;1.40;;;7.60;90.70;;;;;;5072197;28;20451;-60
2021/05/05 07:26:28;;;;;;;4.80;1.60;;;7.60;90.90;;;;;;5068575;28;20093;-60
2021/05/05 07:28:56;;;;;;;7.70;1.92;;;7.60;91.10;;;;;;5066451;28;20475;-59
2021/05/05 07:31:22;;;;;;;6.50;1.88;;;7.60;91.10;;;;;;5063323;28;20041;-60
2021/05/05 07:33:50;;;;;;;9.32;1.98;;;7.60;91.20;;;;;;5065155;28;20021;-62
2021/05/05 07:36:19;;;;;;;3.47;1.70;;;7.60;91.20;;;;;;5071078;28;20033;-61
2021/05/05 07:39:14;;;;;;;8.43;2.45;;;7.70;91.30;;;;;;5062212;28;20024;-60
2021/05/05 07:47:06;;;;;;;;;;;7.80;91.30;;;;;;5073867;28;20035;-62
2021/05/05 07:49:42;;;;;;;11.45;2.92;;;7.90;91.40;;;;;;5072051;28;19920;-59
2021/05/05 07:52:08;;;;;;;14.13;2.53;;;7.90;91.50;;;;;;5069702;28;20238;-59
2021/05/05 07:54:34;;;;;;;12.82;2.60;;;7.90;91.60;;;;;;5070937;28;20020;-59
2021/05/05 07:56:59;;;;;;;7.22;2.03;;;8.00;91.60;;;;;;5071350;28;20029;-59
2021/05/05 07:59:27;;;;;;;7.28;2.03;;;8.00;91.50;;;;;;5071937;28;20027;-59
2021/05/05 08:01:53;;;;;;;5.15;1.73;;;8.00;91.50;;;;;;5064093;28;20491;-59
2021/05/05 08:04:18;;;;;;;6.82;1.20;;;8.00;91.50;;;;;;5071340;28;20020;-59
2021/05/05 08:06:44;;;;;;;1.40;1.10;;;8.10;91.50;;;;;;5069782;28;20511;-59
2021/05/05 08:09:10;;;;;;;3.22;1.25;;;8.00;91.40;;;;;;5058099;28;20025;-59
2021/05/05 08:11:36;;;;;;;5.95;1.40;;;8.10;91.30;;;;;;5060606;28;20484;-59
2021/05/05 08:14:04;;;;;;;9.18;1.88;;;8.20;91.30;;;;;;5070780;28;20377;-59
2021/05/05 08:16:30;;;;;;;1.30;1.02;;;8.20;91.20;;;;;;5070876;28;20035;-59
2021/05/05 08:18:56;;;;;;;7.65;1.75;;;8.20;91.20;;;;;;5068613;28;20024;-60
2021/05/05 08:21:23;;;;;;;5.82;1.38;;;8.30;91.20;;;;;;5070686;28;20115;-60
2021/05/05 08:23:50;;;;;;;2.30;0.98;;;8.30;91.00;;;;;;5069859;28;20428;-60
2021/05/05 08:26:15;;;;;;;1.98;1.02;;;8.40;91.00;;;;;;5070263;28;20029;-61
2021/05/05 08:28:41;;;;;;;2.97;1.00;;;8.40;90.80;;;;;;5069012;28;20029;-60
2021/05/05 08:31:07;;;;;;;3.20;0.90;;;8.40;90.60;;;;;;5070116;28;21046;-60
2021/05/05 08:33:34;;;;;;;6.82;1.13;;;8.50;90.50;;;;;;5068810;28;20017;-60
2021/05/05 08:35:59;;;;;;;3.88;1.60;;;8.50;90.60;;;;;;5068536;28;20071;-60
2021/05/05 08:38:25;;;;;;;5.93;1.60;;;8.60;90.60;;;;;;5069410;28;20044;-60
2021/05/05 08:40:55;;;;;;;3.88;1.42;;;8.60;90.50;;;;;;5070166;28;20040;-60
2021/05/05 08:43:21;;;;;;;4.88;1.30;;;8.60;90.50;;;;;;5066808;28;20032;-60
2021/05/05 08:45:48;;;;;;;4.57;1.10;;;8.60;90.50;;;;;;5068586;28;20044;-61
2021/05/05 08:48:17;;;;;;;12.07;2.00;;;8.60;90.50;;;;;;5067824;28;20021;-61
2021/05/05 08:50:42;;;;;;;15.88;2.00;;;8.70;90.60;;;;;;5068811;28;20123;-61
2021/05/05 08:53:09;;;;;;;5.07;1.50;;;8.70;90.50;;;;;;5066810;28;20135;-60
2021/05/05 08:55:35;;;;;;;5.15;1.27;;;8.70;90.60;;;;;;5069172;28;20177;-60
2021/05/05 08:58:02;;;;;;;2.22;1.30;;;8.70;90.50;;;;;;5069070;28;20037;-60
2021/05/05 09:00:30;;;;;;;4.55;1.60;;;8.80;90.50;;;;;;5069200;28;20017;-60
2021/05/05 09:03:02;;;;;;;6.80;2.10;;;8.80;90.50;;;;;;5068914;28;20032;-60
2021/05/05 09:05:43;;;;;;;5.07;1.08;;;8.80;90.60;;;;;;5066905;28;20025;-60
2021/05/05 09:08:12;;;;;;;6.47;1.83;;;8.90;90.60;;;;;;5069787;28;20028;-60
2021/05/05 09:11:07;;;;;;;4.80;1.67;;;8.90;90.60;;;;;;5069414;28;20120;-60
2021/05/05 09:13:46;;;;;;;9.32;2.15;;;8.90;90.10;;;;;;5068663;28;20035;-60
2021/05/05 09:16:15;;;;;;;3.65;1.65;;;8.90;90.20;;;;;;5067710;28;20360;-60
2021/05/05 09:19:05;;;;;;;11.57;2.50;;;8.90;90.30;;;;;;5068064;28;20028;-60
2021/05/05 09:21:35;;;;;;;5.68;1.48;;;9.00;90.50;;;;;;5066380;28;20131;-60
2021/05/05 09:24:38;;;;;;;2.50;1.10;;;9.00;90.50;;;;;;5071437;28;20024;-61
2021/05/05 09:27:09;;;;;;;9.63;1.77;;;9.00;90.50;;;;;;5071328;28;20804;-60
2021/05/05 09:29:41;;;;;;;5.00;1.30;;;9.10;90.50;;;;;;5080106;28;20120;-60
2021/05/05 09:32:08;;;;;;;8.52;1.45;;;9.10;90.40;;;;;;5073049;28;20032;-64
2021/05/05 09:34:34;;;;;;;6.50;1.65;;;9.10;90.40;;;;;;5072615;28;20024;-60
2021/05/05 09:37:02;;;;;;;4.57;0.85;;;9.10;90.30;;;;;;5072944;28;20044;-61
2021/05/05 09:39:33;;;;;;;3.95;1.45;;;9.10;90.40;;;;;;5073923;28;20032;-61
2021/05/05 09:41:59;;;;;;;5.63;1.75;;;9.10;90.40;;;;;;5070427;28;20056;-61
2021/05/05 09:44:26;;;;;;;6.70;1.63;;;9.10;90.30;;;;;;5075497;28;20028;-62
2021/05/05 09:46:58;;;;;;;1.27;0.73;;;9.10;90.40;;;;;;5075462;28;20032;-62
2021/05/05 09:49:34;;;;;;;7.40;1.40;;;9.20;90.50;;;;;;5074346;28;20052;-63
2021/05/05 09:52:02;;;;;;;10.60;1.75;;;9.20;90.40;;;;;;5075542;28;20048;-62
2021/05/05 09:54:30;;;;;;;4.45;1.45;;;9.30;90.20;;;;;;5075526;28;20064;-61
2021/05/05 09:57:14;;;;;;;7.38;1.27;;;9.30;90.10;;;;;;5074676;28;20090;-62
2021/05/05 09:59:55;;;;;;;3.15;1.25;;;9.20;90.20;;;;;;5075217;28;20056;-61
2021/05/05 10:02:20;;;;;;;2.38;1.20;;;9.20;90.20;;;;;;5074405;28;20112;-62
2021/05/05 10:05:12;;;;;;;5.40;1.00;;;9.20;90.10;;;;;;5075197;28;20107;-61
2021/05/05 10:07:50;;;;;;;4.05;1.48;;;9.30;90.20;;;;;;5071884;28;20044;-61
2021/05/05 10:10:16;;;;;;;8.52;1.55;;;9.30;90.20;;;;;;5074088;28;20111;-61
2021/05/05 10:12:42;;;;;;;25.50;2.15;;;9.30;90.30;;;;;;5075048;28;20028;-61
2021/05/05 10:15:10;;;;;;;8.02;1.80;;;9.30;90.20;;;;;;5075091;28;20102;-61
2021/05/05 10:17:37;;;;;;;6.50;1.70;;;9.30;90.40;;;;;;5070230;28;20471;-60
2021/05/05 10:20:04;;;;;;;5.60;1.42;;;9.30;90.50;;;;;;5074546;28;20031;-60
2021/05/05 10:22:30;;;;;;;5.68;1.67;;;9.30;90.40;;;;;;5073813;28;20438;-61
2021/05/05 10:24:58;;;;;;;10.65;2.30;;;9.30;90.40;;;;;;5064166;28;20024;-60
2021/05/05 10:27:25;;;;;;;9.95;1.60;;;9.30;90.00;;;;;;5074265;28;20043;-60
2021/05/05 10:29:52;;;;;;;8.52;2.33;;;9.30;90.20;;;;;;5074543;28;20024;-61
2021/05/05 10:32:22;;;;;;;9.43;2.00;;;9.40;90.30;;;;;;5073768;28;20047;-60
2021/05/05 10:34:50;;;;;;;9.32;2.95;;;9.50;90.10;;;;;;5071899;28;20104;-61
2021/05/05 10:37:17;;;;;;;9.15;2.08;;;9.50;90.00;;;;;;5069074;28;20472;-61
2021/05/05 10:39:46;;;;;;;9.63;2.63;;;9.50;90.00;;;;;;5073167;28;20052;-62
2021/05/05 10:42:19;;;;;;;8.63;1.55;;;9.50;89.50;;;;;;5074617;28;20406;-61
2021/05/05 10:44:48;;;;;;;13.27;2.40;;;9.50;90.00;;;;;;5068823;28;20112;-61
2021/05/05 10:47:13;;;;;;;10.00;2.03;;;9.60;89.50;;;;;;5071178;28;20029;-61
2021/05/05 10:50:11;;;;;;;3.97;1.20;;;9.60;89.00;;;;;;5073776;28;20094;-61
2021/05/05 10:52:37;;;;;;;1.73;1.00;;;9.60;89.80;;;;;;5064488;28;20048;-61
2021/05/05 10:55:08;;;;;;;7.40;1.77;;;9.60;89.70;;;;;;5074304;28;20525;-61
2021/05/05 10:57:37;;;;;;;5.50;1.38;;;9.60;89.30;;;;;;5073340;28;20349;-61
2021/05/05 11:00:03;;;;;;;9.93;1.92;;;9.60;89.30;;;;;;5072639;28;20467;-61
2021/05/05 11:02:38;;;;;;;13.82;2.22;;;9.70;89.60;;;;;;5062981;28;20033;-60
2021/05/05 11:05:15;;;;;;;8.80;2.28;;;9.70;90.10;;;;;;5072783;28;20021;-61
2021/05/05 11:07:49;;;;;;;12.93;2.80;;;9.70;89.80;;;;;;5081194;28;20059;-61
2021/05/05 11:10:34;;;;;;;8.93;2.00;;;9.80;90.10;;;;;;5077311;28;20120;-61
2021/05/05 11:13:18;;;;;;;16.35;2.97;;;9.80;90.00;;;;;;5072812;28;20032;-61
2021/05/05 11:15:44;;;;;;;;;;;9.90;89.10;;;;;;5072821;28;20016;-61
2021/05/05 11:18:34;;;;;;;5.03;2.08;;;9.80;89.40;;;;;;5073423;28;20288;-61
2021/05/05 11:21:09;;;;;;;11.05;2.13;;;9.80;88.10;;;;;;5061242;28;20029;-60
2021/05/05 11:23:45;;;;;;;11.52;2.20;;;9.80;89.60;;;;;;5065090;28;20047;-58
2021/05/05 11:26:31;;;;;;;8.77;1.88;;;9.80;89.60;;;;;;5061939;28;20028;-58
2021/05/05 11:29:12;;;;;;;10.32;2.42;;;9.80;88.80;;;;;;5071361;28;20036;-58
2021/05/05 11:31:50;;;;;;;6.35;1.77;;;9.80;87.50;;;;;;5071070;28;20040;-61
2021/05/05 11:34:22;;;;;;;12.98;2.70;;;9.90;88.60;;;;;;5069811;28;20492;-60
2021/05/05 11:37:00;;;;;;;9.02;2.22;;;9.90;88.70;;;;;;5071201;28;20028;-60
2021/05/05 11:39:38;;;;;;;11.27;2.03;;;9.90;88.70;;;;;;5072040;28;20479;-61
2021/05/05 11:42:11;;;;;;;8.10;2.13;;;10.00;88.70;;;;;;5070221;28;20036;-60
2021/05/05 11:44:43;;;;;;;10.48;2.00;;;10.00;87.70;;;;;;5072459;28;20021;-61
2021/05/05 11:47:16;;;;;;;11.98;2.88;;;10.00;89.00;;;;;;5071688;28;20051;-60
2021/05/05 11:49:47;;;;;;;13.82;2.58;;;10.10;88.20;;;;;;5067104;28;20049;-61
2021/05/05 11:52:37;;;;;;;10.88;2.28;;;10.10;87.50;;;;;;5072241;28;20040;-61
2021/05/05 11:55:11;;;;;;;10.63;2.47;;;10.10;88.20;;;;;;5068251;28;20017;-60
2021/05/05 11:57:38;;;;;;;26.80;3.00;;;10.10;87.50;;;;;;5072024;28;20024;-61
2021/05/05 12:00:33;;;;;;;8.73;2.50;;;10.20;87.40;;;;;;5070999;28;20040;-61
2021/05/05 12:03:05;;;;;;;10.35;3.30;;;10.20;86.60;;;;;;5070031;28;20502;-61
2021/05/05 12:05:33;;;;;;;8.70;2.10;;;10.20;86.40;;;;;;5070377;28;20021;-61
2021/05/05 12:08:26;;;;;;;16.60;2.78;;;10.30;86.30;;;;;;5071471;28;20764;-60
2021/05/05 12:11:00;;;;;;;9.02;2.85;;;10.30;86.90;;;;;;5063115;28;20071;-60
2021/05/05 12:13:39;;;;;;;14.93;3.38;;;10.40;86.80;;;;;;5071678;28;20021;-60
2021/05/05 12:16:08;;;;;;;3.97;1.33;;;10.40;86.10;;;;;;5068136;28;20051;-60
2021/05/05 12:18:52;;;;;;;4.97;1.45;;;10.40;86.50;;;;;;5071654;28;20115;-60
2021/05/05 12:21:25;;;;;;;2.63;1.45;;;10.40;86.40;;;;;;5070130;28;20075;-63
2021/05/05 12:23:52;;;;;;;2.58;1.27;;;10.40;86.60;;;;;;5070404;28;20063;-61
2021/05/05 12:26:26;;;;;;;7.85;1.73;;;10.40;86.90;;;;;;5072124;28;20143;-60
2021/05/05 12:29:04;;;;;;;3.88;2.00;;;10.40;86.60;;;;;;5071538;28;20460;-60
2021/05/05 12:31:32;;;;;;;11.05;2.03;;;10.40;86.90;;;;;;5071206;28;20056;-60
2021/05/05 12:33:59;;;;;;;8.38;2.08;;;10.50;86.90;;;;;;5071043;28;20016;-61
2021/05/05 12:36:35;;;;;;;8.77;1.92;;;10.50;85.90;;;;;;5070064;28;20108;-60
2021/05/05 12:39:11;;;;;;;12.55;3.08;;;10.50;85.90;;;;;;5062083;28;20021;-62
2021/05/05 12:41:48;;;;;;;11.18;2.50;;;10.50;85.40;;;;;;5059365;28;20085;-60
2021/05/05 12:44:15;;;;;;;14.05;2.80;;;10.50;85.90;;;;;;5070977;28;20024;-62
2021/05/05 12:47:06;;;;;;;18.63;2.80;;;10.50;85.20;;;;;;5068421;28;20489;-60
2021/05/05 12:49:35;;;;;;;9.00;2.42;;;10.60;84.60;;;;;;5058416;28;20039;-60
2021/05/05 12:52:05;;;;;;;17.48;2.80;;;10.60;84.60;;;;;;5070909;28;20051;-60
2021/05/05 12:54:33;;;;;;;10.70;3.08;;;10.60;84.50;;;;;;5064593;28;20037;-60
2021/05/05 12:57:01;;;;;;;10.32;2.50;;;10.60;84.50;;;;;;5071381;28;20040;-60
2021/05/05 12:59:29;;;;;;;18.27;4.03;;;10.60;83.10;;;;;;5066601;28;20021;-60
2021/05/05 13:02:16;;;;;;;15.75;3.47;;;10.60;81.30;;;;;;5071962;28;20048;-60
2021/05/05 13:04:45;;;;;;;9.05;2.40;;;10.60;80.90;;;;;;5071955;28;20025;-60
2021/05/05 13:07:34;;;;;;;15.88;3.13;;;10.60;82.20;;;;;;5072470;28;20029;-59